»·PEaware :: N47DT KSNA-kcrq

N47DT :: KSNA-kcrq

FLIGHT INFORMATION

Flight Status: Arrived
Operator: Privately registered:
United States
More flights under this callsign
Pilot: Wayne C. (13792)
Aircraft: CESSNA 172 SKYHAWK
(C172)
More flights by this aircraft type
Origin: KSNA John Wayne-Orange Co
United States
Destination: kcrq McClellan-Palomar
United States
More flights between these airports :: More routes between these airports
Route: v23 ocn
File this flight plan on PilotEdge
Remarks: I-2
Altitude:
(Current/Filed)
5,000ft
Speed:
(Current/Filed)
125kts
Departed: 23-Apr-17 05:06 PM
Arrived: 23-Apr-17 05:49 PM
Distance/Time
Traveled:
44nm/0:43
Distance/Time
To Go:
Arrived

Flight Plot

Page will automatically refresh every two minutes.


Map Options




Map Legend


Flown Route
Filed Route
Departure Airport
Arrival Airport
Navaid (VOR, NDB)
Fix

Horizontal Profiles

Position Reports

Time Latitude Longitude Heading Altitude Ground
Speed
23-Apr-17 16:55 33.671708 -117.867784 27 59ft 0kts
23-Apr-17 16:56 33.671708 -117.867784 27 59ft 0kts
23-Apr-17 16:57 33.671708 -117.867784 27 59ft 0kts
23-Apr-17 16:58 33.671708 -117.867784 27 59ft 0kts
23-Apr-17 16:59 33.671708 -117.867784 27 59ft 0kts
23-Apr-17 17:00 33.671708 -117.867784 27 59ft 0kts
23-Apr-17 17:01 33.671708 -117.867784 27 59ft 0kts
23-Apr-17 17:02 33.671708 -117.867784 27 59ft 0kts
23-Apr-17 17:03 33.671708 -117.867784 27 59ft 0kts
23-Apr-17 17:04 33.673083 -117.867284 49 59ft 8kts
23-Apr-17 17:05 33.678060 -117.864578 26 59ft 26kts
23-Apr-17 17:06 33.679961 -117.863614 309 59ft 0kts
23-Apr-17 17:07 33.679969 -117.863627 309 59ft 0kts
23-Apr-17 17:08 33.674060 -117.868690 200 322ft 60kts
23-Apr-17 17:09 33.658078 -117.871546 186 1385ft 49kts
23-Apr-17 17:10 33.641559 -117.872297 188 2246ft 69kts
23-Apr-17 17:11 33.627148 -117.859777 132 3191ft 79kts
23-Apr-17 17:12 33.614025 -117.839986 140 3984ft 84kts
23-Apr-17 17:13 33.595769 -117.824968 173 4776ft 77kts
23-Apr-17 17:14 33.575435 -117.808455 137 4932ft 108kts
23-Apr-17 17:15 33.559587 -117.779501 129 5024ft 109kts
23-Apr-17 17:16 33.540523 -117.752894 149 4902ft 109kts
23-Apr-17 17:17 33.517223 -117.731831 149 5062ft 111kts
23-Apr-17 17:18 33.493326 -117.705619 137 5067ft 120kts
23-Apr-17 17:19 33.472716 -117.674108 136 5139ft 121kts
23-Apr-17 17:20 33.447644 -117.647251 151 5094ft 120kts
23-Apr-17 17:21 33.420129 -117.627642 145 5219ft 119kts
23-Apr-17 17:22 33.397767 -117.594968 132 5121ft 122kts
23-Apr-17 17:23 33.374369 -117.564999 149 5099ft 117kts
23-Apr-17 17:24 33.347488 -117.543630 148 5083ft 122kts
23-Apr-17 17:25 33.326819 -117.511132 134 5074ft 122kts
23-Apr-17 17:26 33.304868 -117.481444 139 5049ft 129kts
23-Apr-17 17:27 33.281515 -117.451604 139 5102ft 115kts
23-Apr-17 17:28 33.273151 -117.418581 66 5278ft 131kts
23-Apr-17 17:29 33.286770 -117.378446 68 5069ft 130kts
23-Apr-17 17:30 33.300296 -117.340952 73 5105ft 117kts
23-Apr-17 17:31 33.310753 -117.302415 78 5016ft 121kts
23-Apr-17 17:32 33.318310 -117.263727 75 5012ft 119kts
23-Apr-17 17:33 33.328516 -117.225721 74 5020ft 126kts
23-Apr-17 17:34 33.341055 -117.184536 67 5084ft 145kts
23-Apr-17 17:35 33.355041 -117.139604 78 4967ft 141kts
23-Apr-17 17:36 33.364648 -117.095816 94 5041ft 129kts
23-Apr-17 17:37 33.338567 -117.079313 177 5109ft 107kts
23-Apr-17 17:38 33.307585 -117.072008 173 5013ft 122kts
23-Apr-17 17:39 33.275242 -117.060361 165 4583ft 123kts
23-Apr-17 17:40 33.243727 -117.047533 166 4101ft 118kts
23-Apr-17 17:41 33.212510 -117.036635 178 4060ft 120kts
23-Apr-17 17:42 33.187451 -117.055975 219 4065ft 100kts
23-Apr-17 17:43 33.167228 -117.075474 233 4017ft 87kts
23-Apr-17 17:44 33.156873 -117.102696 256 3488ft 91kts
23-Apr-17 17:45 33.152982 -117.131849 255 3020ft 92kts
23-Apr-17 17:46 33.147967 -117.162442 255 2427ft 95kts
23-Apr-17 17:47 33.143246 -117.193667 254 1813ft 97kts
23-Apr-17 17:48 33.138018 -117.222835 250 1258ft 80kts
23-Apr-17 17:49 33.133282 -117.248579 257 752ft 76kts
23-Apr-17 17:50 33.129491 -117.272809 254 327ft 66kts
23-Apr-17 17:51 33.128021 -117.279354 230 297ft 7kts
23-Apr-17 17:52 33.127723 -117.279636 185 297ft 0kts

Navigation Log

Ident Type
Flight plan parsing failed, navigation log unavailable